createdAt,value
2023-05-01T00:00:32.297Z,102.44
2023-05-01T00:01:32.354Z,104.31
2023-05-01T00:02:32.373Z,107.03
2023-05-01T00:03:33.405Z,103.32
2023-05-01T00:04:32.308Z,103.10
2023-05-01T00:05:32.307Z,103.63
2023-05-01T00:06:32.309Z,102.71
2023-05-01T00:07:32.290Z,102.60
2023-05-01T00:08:32.238Z,102.45
2023-05-01T00:09:32.314Z,102.95
2023-05-01T00:10:32.256Z,102.72
2023-05-01T00:11:32.227Z,103.02
2023-05-01T00:12:32.264Z,101.77
2023-05-01T00:13:33.218Z,102.22
2023-05-01T00:14:32.238Z,103.54
2023-05-01T00:15:32.242Z,102.41
2023-05-01T00:16:32.295Z,102.29
2023-05-01T00:17:32.273Z,103.17
2023-05-01T00:18:32.198Z,101.81
2023-05-01T00:19:32.207Z,103.10
2023-05-01T00:20:32.231Z,101.71
2023-05-01T00:21:32.196Z,101.52
2023-05-01T00:22:32.231Z,101.50
2023-05-01T00:23:32.149Z,102.88
2023-05-01T00:24:32.160Z,102.43
2023-05-01T00:25:32.168Z,102.95
2023-05-01T00:26:32.184Z,104.46
2023-05-01T00:27:32.132Z,100.85
2023-05-01T00:28:32.174Z,104.21
2023-05-01T00:29:32.138Z,101.77
2023-05-01T00:30:32.145Z,103.06
2023-05-01T00:31:32.180Z,102.00
2023-05-01T00:32:32.161Z,104.87
2023-05-01T00:33:32.120Z,102.12
2023-05-01T00:34:32.133Z,104.68
2023-05-01T00:35:32.131Z,103.95
2023-05-01T00:36:32.083Z,101.47
2023-05-01T00:37:32.087Z,104.12
2023-05-01T00:38:32.115Z,102.47
2023-05-01T00:39:32.115Z,101.88
2023-05-01T00:40:32.136Z,103.79
2023-05-01T00:41:32.153Z,101.73
2023-05-01T00:42:32.183Z,102.80
2023-05-01T00:43:32.146Z,104.81
2023-05-01T00:44:32.257Z,100.58
2023-05-01T00:45:32.281Z,105.71
2023-05-01T00:46:32.495Z,101.86
2023-05-01T00:47:32.390Z,104.55
2023-05-01T00:48:32.304Z,104.55
2023-05-01T00:49:32.319Z,102.64
2023-05-01T00:50:32.381Z,102.83
2023-05-01T00:51:32.372Z,105.74
2023-05-01T00:52:32.437Z,100.43
2023-05-01T00:53:32.404Z,103.02
2023-05-01T00:54:32.449Z,102.23
2023-05-01T00:55:32.493Z,102.35
2023-05-01T00:56:32.568Z,104.35
2023-05-01T00:57:32.529Z,103.97
2023-05-01T00:58:32.555Z,103.10
2023-05-01T00:59:32.594Z,103.63
2023-05-01T01:00:32.609Z,102.33
2023-05-01T01:01:32.654Z,102.86
2023-05-01T01:02:32.749Z,102.94
2023-05-01T01:03:32.666Z,107.27
2023-05-01T01:04:32.776Z,102.15
2023-05-01T01:05:32.747Z,103.14
2023-05-01T01:06:32.883Z,102.45
2023-05-01T01:07:32.817Z,105.10
2023-05-01T01:08:32.955Z,104.46
2023-05-01T01:09:32.890Z,104.84
2023-05-01T01:10:32.892Z,102.82
2023-05-01T01:11:32.946Z,101.99
2023-05-01T01:12:32.998Z,104.21
2023-05-01T01:13:33.012Z,105.03
2023-05-01T01:14:33.002Z,102.84
2023-05-01T01:15:33.055Z,102.59
2023-05-01T01:16:33.096Z,103.38
2023-05-01T01:17:33.148Z,105.20
2023-05-01T01:18:33.156Z,100.73
2023-05-01T01:19:33.135Z,103.44
2023-05-01T01:20:33.153Z,102.89
2023-05-01T01:21:33.217Z,104.06
2023-05-01T01:22:33.258Z,106.40
2023-05-01T01:23:33.217Z,100.14
2023-05-01T01:24:33.182Z,101.72
2023-05-01T01:25:33.250Z,101.56
2023-05-01T01:26:33.278Z,103.69
2023-05-01T01:27:33.281Z,104.72
2023-05-01T01:28:33.288Z,105.65
2023-05-01T01:29:33.338Z,104.38
2023-05-01T01:30:33.376Z,103.17
2023-05-01T01:31:33.441Z,105.59
2023-05-01T01:32:33.456Z,102.78
2023-05-01T01:33:33.428Z,103.36
2023-05-01T01:34:33.499Z,103.70
2023-05-01T01:35:33.465Z,102.10
2023-05-01T01:36:33.520Z,103.09
2023-05-01T01:37:33.581Z,102.05
2023-05-01T01:38:33.642Z,103.48
2023-05-01T01:39:33.660Z,101.30
2023-05-01T01:40:33.708Z,103.82
2023-05-01T01:41:33.697Z,102.78
2023-05-01T01:42:33.761Z,102.83
2023-05-01T01:43:33.781Z,104.92
2023-05-01T01:44:33.814Z,105.68
2023-05-01T01:45:33.814Z,104.60
2023-05-01T01:46:33.878Z,103.58
2023-05-01T01:47:33.920Z,103.27
2023-05-01T01:48:33.861Z,103.02
2023-05-01T01:49:33.915Z,106.80
2023-05-01T01:50:34.030Z,102.23
2023-05-01T01:51:33.983Z,102.28
2023-05-01T01:52:34.044Z,101.78
2023-05-01T01:53:34.056Z,102.58
2023-05-01T01:54:34.051Z,102.73
2023-05-01T01:55:34.088Z,100.45
2023-05-01T01:56:34.098Z,103.02
2023-05-01T01:57:34.101Z,102.13
2023-05-01T01:58:34.192Z,101.95
2023-05-01T01:59:34.552Z,105.21
2023-05-01T02:00:34.260Z,104.00
2023-05-01T02:01:34.307Z,101.47
2023-05-01T02:02:34.399Z,107.08
2023-05-01T02:03:34.474Z,106.01
2023-05-01T02:04:34.320Z,101.77
2023-05-01T02:05:34.392Z,99.19
2023-05-01T02:06:34.416Z,101.69
2023-05-01T02:07:34.441Z,104.12
2023-05-01T02:08:34.463Z,100.29
2023-05-01T02:09:34.462Z,104.45
2023-05-01T02:10:34.518Z,103.50
2023-05-01T02:11:34.504Z,103.36
2023-05-01T02:12:34.636Z,100.59
2023-05-01T02:13:34.599Z,100.40
2023-05-01T02:14:34.636Z,101.13
2023-05-01T02:15:34.666Z,103.99
2023-05-01T02:16:34.800Z,102.13
2023-05-01T02:17:34.758Z,100.02
2023-05-01T02:18:34.838Z,102.59
2023-05-01T02:19:34.806Z,102.20
2023-05-01T02:20:34.813Z,99.60
2023-05-01T02:21:34.888Z,100.29
2023-05-01T02:22:34.863Z,103.44
2023-05-01T02:23:34.898Z,102.17
2023-05-01T02:24:34.886Z,103.28
2023-05-01T02:25:34.985Z,103.42
2023-05-01T02:26:35.000Z,103.69
2023-05-01T02:27:34.997Z,102.69
2023-05-01T02:28:35.067Z,104.01
2023-05-01T02:29:35.111Z,103.84
2023-05-01T02:30:35.108Z,106.04
2023-05-01T02:31:35.203Z,103.66
2023-05-01T02:32:35.261Z,102.36
2023-05-01T02:33:35.196Z,102.74
2023-05-01T02:34:35.253Z,102.05
2023-05-01T02:35:35.307Z,104.13
2023-05-01T02:36:35.294Z,103.91
2023-05-01T02:37:35.332Z,105.44
2023-05-01T02:38:35.389Z,104.67
2023-05-01T02:39:35.406Z,104.37
2023-05-01T02:40:35.393Z,103.19
2023-05-01T02:41:35.452Z,105.21
2023-05-01T02:42:35.464Z,104.17
2023-05-01T02:43:35.501Z,103.10
2023-05-01T02:44:35.473Z,103.46
2023-05-01T02:45:35.620Z,104.59
2023-05-01T02:46:35.541Z,103.86
2023-05-01T02:47:35.661Z,104.44
2023-05-01T02:48:35.599Z,104.17
2023-05-01T02:49:35.657Z,104.74
2023-05-01T02:50:35.683Z,104.93
2023-05-01T02:51:35.785Z,104.81
2023-05-01T02:52:35.791Z,106.24
2023-05-01T02:53:35.813Z,104.54
2023-05-01T02:54:35.806Z,107.40
2023-05-01T02:55:35.860Z,105.06
2023-05-01T02:56:36.149Z,106.15
2023-05-01T02:57:35.892Z,103.18
2023-05-01T02:58:35.934Z,104.64
2023-05-01T02:59:35.938Z,104.56
2023-05-01T03:00:36.030Z,104.89
2023-05-01T03:01:36.123Z,104.24
2023-05-01T03:02:36.086Z,104.91
2023-05-01T03:03:36.085Z,105.06
2023-05-01T03:04:36.126Z,106.35
2023-05-01T03:05:36.087Z,103.20
2023-05-01T03:06:36.205Z,107.99
2023-05-01T03:07:36.177Z,104.15
2023-05-01T03:08:36.197Z,104.12
2023-05-01T03:09:36.225Z,105.97
2023-05-01T03:10:36.284Z,102.75
2023-05-01T03:11:36.220Z,103.09
2023-05-01T03:12:36.270Z,104.18
2023-05-01T03:13:36.288Z,104.68
2023-05-01T03:14:36.357Z,106.48
2023-05-01T03:15:36.361Z,105.77
2023-05-01T03:16:36.449Z,107.22
2023-05-01T03:17:36.509Z,104.35
2023-05-01T03:18:36.460Z,107.40
2023-05-01T03:19:36.496Z,105.21
2023-05-01T03:20:36.491Z,106.05
2023-05-01T03:21:36.805Z,104.60
2023-05-01T03:22:36.589Z,104.74
2023-05-01T03:23:36.621Z,103.40
2023-05-01T03:24:36.634Z,102.92
2023-05-01T03:25:36.613Z,104.68
2023-05-01T03:26:36.672Z,105.64
2023-05-01T03:27:36.710Z,104.36
2023-05-01T03:28:36.761Z,105.66
2023-05-01T03:29:36.759Z,103.78
2023-05-01T03:30:36.825Z,104.09
2023-05-01T03:31:36.871Z,105.51
2023-05-01T03:32:36.866Z,104.40
2023-05-01T03:33:36.883Z,105.84
2023-05-01T03:34:36.890Z,106.51
2023-05-01T03:35:36.937Z,102.55
2023-05-01T03:36:36.921Z,102.65
2023-05-01T03:37:36.984Z,105.91
2023-05-01T03:38:36.965Z,104.03
2023-05-01T03:39:37.012Z,102.83
2023-05-01T03:40:37.037Z,101.81
2023-05-01T03:41:37.057Z,104.35
2023-05-01T03:42:37.314Z,102.11
2023-05-01T03:43:37.133Z,109.35
2023-05-01T03:44:37.161Z,104.17
2023-05-01T03:45:37.165Z,105.57
2023-05-01T03:46:37.386Z,105.04
2023-05-01T03:47:37.308Z,103.33
2023-05-01T03:48:37.230Z,103.32
2023-05-01T03:49:37.304Z,105.87
2023-05-01T03:50:37.311Z,103.37
2023-05-01T03:51:37.383Z,101.73
2023-05-01T03:52:37.389Z,106.97
2023-05-01T03:53:37.404Z,107.76
2023-05-01T03:54:37.420Z,104.31
2023-05-01T03:55:38.310Z,106.98
2023-05-01T03:56:37.472Z,106.84
2023-05-01T03:57:37.468Z,107.48
2023-05-01T03:58:37.524Z,106.25
2023-05-01T03:59:37.557Z,105.02
2023-05-01T04:00:37.638Z,107.34
2023-05-01T04:01:37.632Z,106.93
2023-05-01T04:02:37.770Z,103.92
2023-05-01T04:03:37.921Z,104.77
2023-05-01T04:04:37.797Z,102.41
2023-05-01T04:05:37.817Z,102.52
2023-05-01T04:06:37.996Z,105.49
2023-05-01T04:07:37.897Z,103.81
2023-05-01T04:08:37.907Z,102.35
2023-05-01T04:09:37.943Z,101.91
2023-05-01T04:10:37.943Z,96.44
2023-05-01T04:11:37.971Z,92.68
2023-05-01T04:12:38.044Z,92.88
2023-05-01T04:13:38.039Z,88.24
2023-05-01T04:14:38.025Z,83.42
2023-05-01T04:15:38.138Z,81.91
2023-05-01T04:16:38.199Z,80.18
2023-05-01T04:17:38.178Z,70.67
2023-05-01T04:18:38.172Z,71.56
2023-05-01T04:19:38.232Z,68.67
2023-05-01T04:20:38.277Z,67.70
2023-05-01T04:21:38.278Z,65.15
2023-05-01T04:22:38.354Z,58.50
2023-05-01T04:23:38.418Z,58.80
2023-05-01T04:24:38.417Z,42.02
2023-05-01T04:25:38.480Z,47.48
2023-05-01T04:26:38.478Z,50.75
2023-05-01T04:27:38.555Z,50.49
2023-05-01T04:28:38.602Z,45.29
2023-05-01T04:29:38.664Z,45.21
2023-05-01T04:30:38.693Z,45.32
2023-05-01T04:31:38.761Z,41.41
2023-05-01T04:32:38.847Z,41.89
2023-05-01T04:33:38.781Z,41.97
2023-05-01T04:34:38.797Z,40.11
2023-05-01T04:35:38.821Z,43.58
2023-05-01T04:36:38.875Z,37.57
2023-05-01T04:37:38.927Z,37.03
2023-05-01T04:38:38.981Z,33.90
2023-05-01T04:39:38.974Z,37.33
2023-05-01T04:40:39.046Z,38.83
2023-05-01T04:41:39.070Z,37.17
2023-05-01T04:42:39.160Z,40.85
2023-05-01T04:43:39.165Z,38.97
2023-05-01T04:44:39.164Z,41.14
2023-05-01T04:45:39.216Z,38.36
2023-05-01T04:46:39.308Z,37.68
2023-05-01T04:47:39.391Z,38.66
2023-05-01T04:48:39.352Z,41.44
2023-05-01T04:49:40.326Z,42.44
2023-05-01T04:50:39.408Z,39.87
2023-05-01T04:51:39.474Z,38.01
2023-05-01T04:52:39.537Z,38.24
2023-05-01T04:53:39.536Z,41.75
2023-05-01T04:54:39.835Z,44.29
2023-05-01T04:55:39.886Z,41.54
2023-05-01T04:57:58.366Z,25.00
2023-05-01T04:58:58.381Z,25.00
2023-05-01T04:59:58.651Z,25.00
2023-05-01T05:00:58.322Z,25.00
2023-05-01T05:01:58.482Z,25.00
2023-05-01T05:02:58.405Z,25.23
2023-05-01T05:03:58.645Z,29.23
2023-05-01T05:04:58.279Z,25.00
2023-05-01T05:05:58.325Z,28.24
2023-05-01T05:06:58.278Z,28.16
2023-05-01T05:07:58.270Z,29.95
2023-05-01T05:08:58.272Z,27.49
2023-05-01T05:09:58.429Z,29.15
2023-05-01T05:10:58.397Z,29.02
2023-05-01T05:11:58.218Z,28.68
2023-05-01T05:12:58.251Z,27.81
2023-05-01T05:13:58.243Z,30.82
2023-05-01T05:14:58.217Z,30.99
2023-05-01T05:15:58.261Z,28.04
2023-05-01T05:16:58.482Z,31.19
2023-05-01T05:17:58.345Z,29.17
2023-05-01T05:18:58.195Z,29.49
2023-05-01T05:19:58.569Z,33.59
2023-05-01T05:20:58.191Z,29.85
2023-05-01T05:21:58.168Z,32.87
2023-05-01T05:22:58.173Z,32.13
2023-05-01T05:23:58.202Z,30.90
2023-05-01T05:24:58.182Z,30.76
2023-05-01T05:25:58.156Z,33.41
2023-05-01T05:26:58.174Z,33.36
2023-05-01T05:27:58.611Z,33.85
2023-05-01T05:28:58.170Z,37.12
2023-05-01T05:29:58.242Z,35.83
2023-05-01T05:30:58.128Z,37.89
2023-05-01T05:31:58.164Z,37.76
2023-05-01T05:32:58.093Z,36.99
2023-05-01T05:33:58.070Z,35.65
2023-05-01T05:34:58.101Z,40.23
2023-05-01T05:35:58.084Z,37.81
2023-05-01T05:36:58.060Z,38.36
2023-05-01T05:37:58.078Z,39.86
2023-05-01T05:38:58.066Z,37.06
2023-05-01T05:39:58.211Z,35.43
2023-05-01T05:40:58.073Z,38.59
2023-05-01T05:41:58.043Z,36.99
2023-05-01T05:42:58.040Z,37.35
2023-05-01T05:43:58.001Z,38.66
2023-05-01T05:44:58.000Z,37.84
2023-05-01T05:45:58.058Z,39.48
2023-05-01T05:46:58.127Z,40.76
2023-05-01T05:47:58.044Z,39.27
2023-05-01T05:48:58.014Z,37.65
2023-05-01T05:49:58.295Z,39.34
2023-05-01T05:50:58.044Z,39.71
2023-05-01T05:51:58.137Z,43.23
2023-05-01T05:52:58.159Z,43.59
2023-05-01T05:53:58.180Z,43.20
2023-05-01T05:54:58.229Z,43.21
2023-05-01T05:55:58.287Z,44.26
2023-05-01T05:56:58.281Z,41.31
2023-05-01T05:57:58.298Z,40.11
2023-05-01T05:58:58.348Z,43.91
2023-05-01T05:59:58.585Z,42.63
2023-05-01T06:00:58.429Z,45.09
2023-05-01T06:01:58.513Z,45.57
2023-05-01T06:02:58.620Z,43.95
2023-05-01T06:03:58.494Z,41.64
2023-05-01T06:04:58.598Z,41.34
2023-05-01T06:05:58.759Z,45.87
2023-05-01T06:06:58.628Z,44.37
2023-05-01T06:07:59.593Z,39.69
2023-05-01T06:08:58.696Z,45.89
2023-05-01T06:09:58.825Z,45.35
2023-05-01T06:10:58.836Z,45.13
2023-05-01T06:11:58.803Z,47.76
2023-05-01T06:13:06.327Z,44.19
2023-05-01T06:13:59.883Z,44.38
2023-05-01T06:14:58.828Z,44.86
2023-05-01T06:15:58.855Z,45.58
2023-05-01T06:16:58.824Z,46.82
2023-05-01T06:17:58.887Z,48.23
2023-05-01T06:18:58.785Z,48.40
2023-05-01T06:19:58.978Z,48.44
2023-05-01T06:20:58.780Z,44.26
2023-05-01T06:21:58.780Z,48.40
2023-05-01T06:22:58.788Z,50.28
2023-05-01T06:23:58.792Z,47.09
2023-05-01T06:24:58.852Z,47.23
2023-05-01T06:25:58.744Z,46.04
2023-05-01T06:27:00.201Z,51.42
2023-05-01T06:27:58.984Z,49.47
2023-05-01T06:28:59.031Z,47.90
2023-05-01T06:29:59.156Z,48.44
2023-05-01T06:30:59.092Z,47.26
2023-05-01T06:32:00.232Z,48.69
2023-05-01T06:32:59.212Z,47.32
2023-05-01T06:33:59.176Z,48.43
2023-05-01T06:34:59.196Z,46.74
2023-05-01T06:35:59.210Z,47.99
2023-05-01T06:36:59.217Z,45.95
2023-05-01T06:37:59.298Z,47.19
2023-05-01T06:38:59.340Z,46.18
2023-05-01T06:39:59.601Z,46.86
2023-05-01T06:40:59.404Z,46.68
2023-05-01T06:41:59.415Z,47.39
2023-05-01T06:42:59.479Z,46.60
2023-05-01T06:43:59.474Z,48.17
2023-05-01T06:44:59.534Z,48.48
2023-05-01T06:45:59.599Z,45.55
2023-05-01T06:46:59.616Z,48.85
2023-05-01T06:47:59.771Z,48.14
2023-05-01T06:48:59.675Z,48.43
2023-05-01T06:50:00.242Z,44.51
2023-05-01T06:50:59.734Z,47.94
2023-05-01T06:51:59.740Z,48.35
2023-05-01T06:52:59.804Z,49.34
2023-05-01T06:53:59.815Z,53.39
2023-05-01T06:54:59.865Z,51.21
2023-05-01T06:56:00.643Z,47.63
2023-05-01T06:56:59.934Z,48.55
2023-05-01T06:58:02.665Z,49.78
2023-05-01T06:59:00.963Z,49.89
2023-05-01T07:00:00.046Z,50.67
2023-05-01T07:01:00.004Z,51.18
2023-05-01T07:02:00.069Z,50.14
2023-05-01T07:03:00.090Z,52.11
2023-05-01T07:03:59.908Z,50.47
2023-05-01T07:04:59.945Z,48.00
2023-05-01T07:05:59.964Z,50.02
2023-05-01T07:06:59.880Z,55.19
2023-05-01T07:08:01.513Z,53.54
2023-05-01T07:08:59.913Z,55.69
2023-05-01T07:10:00.200Z,50.44
2023-05-01T07:10:59.880Z,47.77
2023-05-01T07:11:59.882Z,52.61
2023-05-01T07:12:59.943Z,52.15
2023-05-01T07:13:59.942Z,50.54
2023-05-01T07:14:59.982Z,51.34
2023-05-01T07:16:00.087Z,53.42
2023-05-01T07:17:00.186Z,50.93
2023-05-01T07:18:00.189Z,49.22
2023-05-01T07:19:00.130Z,53.18
2023-05-01T07:20:00.182Z,51.90
2023-05-01T07:21:00.237Z,51.61
2023-05-01T07:22:00.242Z,56.87
2023-05-01T07:23:00.324Z,53.14
2023-05-01T07:24:00.318Z,53.33
2023-05-01T07:25:00.367Z,51.44
2023-05-01T07:26:00.442Z,54.98
2023-05-01T07:27:00.446Z,52.49
2023-05-01T07:28:00.465Z,54.28
2023-05-01T07:29:00.494Z,53.75
2023-05-01T07:30:00.565Z,50.81
2023-05-01T07:31:00.567Z,51.29
2023-05-01T07:32:00.626Z,51.73
2023-05-01T07:33:00.599Z,50.95
2023-05-01T07:34:00.653Z,54.04
2023-05-01T07:35:00.701Z,54.67
2023-05-01T07:36:00.753Z,54.77
2023-05-01T07:37:00.759Z,55.27
2023-05-01T07:38:00.786Z,52.38
2023-05-01T07:39:00.840Z,51.49
2023-05-01T07:40:00.858Z,53.44
2023-05-01T07:41:00.894Z,52.82
2023-05-01T07:42:00.963Z,51.36
2023-05-01T07:43:01.019Z,51.43
2023-05-01T07:44:01.070Z,55.31
2023-05-01T07:45:01.087Z,52.14
2023-05-01T07:46:01.193Z,53.29
2023-05-01T07:47:01.098Z,56.38
2023-05-01T07:48:01.155Z,54.55
2023-05-01T07:49:01.233Z,52.84
2023-05-01T07:50:01.212Z,54.26
2023-05-01T07:51:01.275Z,53.01
2023-05-01T07:52:01.266Z,52.86
2023-05-01T07:53:01.344Z,56.51
2023-05-01T07:54:01.340Z,57.76
2023-05-01T07:55:01.469Z,52.23
2023-05-01T07:56:01.391Z,51.43
2023-05-01T07:57:02.127Z,55.75
2023-05-01T07:58:01.471Z,53.45
2023-05-01T07:59:01.468Z,54.53
2023-05-01T08:00:01.600Z,52.67
2023-05-01T08:01:01.602Z,56.02
2023-05-01T08:02:01.719Z,55.16
2023-05-01T08:03:01.760Z,52.03
2023-05-01T08:04:01.737Z,55.90
2023-05-01T08:05:01.761Z,53.52
2023-05-01T08:06:01.887Z,54.94
2023-05-01T08:07:01.781Z,56.83
2023-05-01T08:08:01.815Z,54.22
2023-05-01T08:09:01.798Z,54.74
2023-05-01T08:10:02.107Z,54.30
2023-05-01T08:11:01.929Z,55.88
2023-05-01T08:12:01.907Z,51.86
2023-05-01T08:13:01.929Z,53.92
2023-05-01T08:14:01.999Z,51.98
2023-05-01T08:15:02.061Z,53.16
2023-05-01T08:16:02.162Z,54.87
2023-05-01T08:17:02.035Z,57.13
2023-05-01T08:18:02.110Z,54.41
2023-05-01T08:19:02.141Z,53.65
2023-05-01T08:20:02.149Z,52.21
2023-05-01T08:21:02.227Z,55.14
2023-05-01T08:22:02.220Z,52.79
2023-05-01T08:23:02.259Z,53.15
2023-05-01T08:24:02.707Z,56.88
2023-05-01T08:25:02.283Z,55.95
2023-05-01T08:26:02.280Z,52.07
2023-05-01T08:27:02.332Z,55.05
2023-05-01T08:28:02.320Z,53.46
2023-05-01T08:29:02.398Z,56.78
2023-05-01T08:30:02.427Z,52.98
2023-05-01T08:31:02.447Z,53.95
2023-05-01T08:32:02.485Z,53.62
2023-05-01T08:33:02.509Z,55.10
2023-05-01T08:34:02.462Z,54.73
2023-05-01T08:35:02.551Z,54.83
2023-05-01T08:36:02.565Z,53.61
2023-05-01T08:37:02.557Z,54.11
2023-05-01T08:38:02.613Z,54.04
2023-05-01T08:39:02.681Z,56.19
2023-05-01T08:40:02.719Z,58.42
2023-05-01T08:41:02.682Z,54.87
2023-05-01T08:42:02.740Z,55.90
2023-05-01T08:43:02.753Z,54.16
2023-05-01T08:44:02.817Z,55.58
2023-05-01T08:45:02.848Z,55.28
2023-05-01T08:46:02.877Z,58.23
2023-05-01T08:47:03.110Z,54.62
2023-05-01T08:48:02.946Z,56.52
2023-05-01T08:49:03.012Z,53.84
2023-05-01T08:50:02.993Z,54.90
2023-05-01T08:51:03.002Z,58.10
2023-05-01T08:52:03.696Z,53.67
2023-05-01T08:53:03.077Z,55.08
2023-05-01T08:54:03.100Z,56.90
2023-05-01T08:55:03.097Z,58.24
2023-05-01T08:56:03.124Z,56.22
2023-05-01T08:57:03.153Z,53.79
2023-05-01T08:58:03.162Z,55.83
2023-05-01T08:59:03.225Z,55.90
2023-05-01T09:00:03.221Z,56.31
2023-05-01T09:01:03.247Z,56.43
2023-05-01T09:02:03.345Z,54.92
2023-05-01T09:03:03.454Z,57.51
2023-05-01T09:04:03.427Z,54.43
2023-05-01T09:05:03.405Z,54.40
2023-05-01T09:06:03.456Z,58.00
2023-05-01T09:07:03.499Z,57.41
2023-05-01T09:08:03.452Z,56.22
2023-05-01T09:09:03.495Z,54.44
2023-05-01T09:10:03.553Z,55.93
2023-05-01T09:11:04.159Z,56.01
2023-05-01T09:12:03.611Z,59.17
2023-05-01T09:13:03.545Z,58.48
2023-05-01T09:14:03.633Z,55.02
2023-05-01T09:15:03.629Z,57.98
2023-05-01T09:16:03.717Z,59.20
2023-05-01T09:17:03.702Z,59.60
2023-05-01T09:18:04.189Z,57.66
2023-05-01T09:19:03.783Z,55.26
2023-05-01T09:20:03.786Z,56.36
2023-05-01T09:21:03.821Z,57.24
2023-05-01T09:22:03.828Z,56.71
2023-05-01T09:23:03.842Z,57.92
2023-05-01T09:24:03.865Z,57.14
2023-05-01T09:25:03.902Z,58.27
2023-05-01T09:26:04.021Z,57.82
2023-05-01T09:27:03.952Z,56.59
2023-05-01T09:28:03.978Z,56.27
2023-05-01T09:29:04.044Z,58.64
2023-05-01T09:30:04.046Z,57.42
2023-05-01T09:31:04.056Z,57.70
2023-05-01T09:32:04.159Z,56.55
2023-05-01T09:33:04.150Z,57.97
2023-05-01T09:34:04.175Z,57.78
2023-05-01T09:35:04.181Z,58.38
2023-05-01T09:36:04.198Z,58.68
2023-05-01T09:37:04.244Z,57.68
2023-05-01T09:38:04.234Z,56.02
2023-05-01T09:39:04.324Z,58.05
2023-05-01T09:40:04.298Z,59.92
2023-05-01T09:41:04.421Z,56.30
2023-05-01T09:42:04.341Z,59.06
2023-05-01T09:43:04.340Z,59.70
2023-05-01T09:44:04.383Z,59.49
2023-05-01T09:45:04.432Z,60.74
2023-05-01T09:46:04.512Z,61.19
2023-05-01T09:47:04.447Z,60.23
2023-05-01T09:48:04.627Z,58.16
2023-05-01T09:49:04.516Z,60.38
2023-05-01T09:50:04.541Z,61.52
2023-05-01T09:51:04.606Z,63.03
2023-05-01T09:52:04.612Z,60.69
2023-05-01T09:53:04.674Z,61.32
2023-05-01T09:54:04.657Z,60.38
2023-05-01T09:55:04.671Z,58.36
2023-05-01T09:56:04.757Z,60.82
2023-05-01T09:57:04.775Z,62.16
2023-05-01T09:58:04.838Z,63.18
2023-05-01T09:59:04.815Z,61.38
2023-05-01T10:00:04.870Z,61.43
2023-05-01T10:01:04.879Z,60.93
2023-05-01T10:02:04.920Z,62.36
2023-05-01T10:03:06.436Z,63.65
2023-05-01T10:04:04.954Z,63.17
2023-05-01T10:05:04.955Z,62.51
2023-05-01T10:06:04.995Z,60.88
2023-05-01T10:07:05.064Z,62.76
2023-05-01T10:08:05.055Z,62.89
2023-05-01T10:09:05.048Z,63.40
2023-05-01T10:10:05.173Z,66.25
2023-05-01T10:11:05.165Z,66.47
2023-05-01T10:12:05.163Z,64.17
2023-05-01T10:13:05.170Z,62.27
2023-05-01T10:14:05.132Z,64.98
2023-05-01T10:15:17.409Z,62.18
2023-05-01T10:16:06.256Z,62.29
2023-05-01T10:17:05.206Z,62.43
2023-05-01T10:18:05.243Z,63.05
2023-05-01T10:19:05.166Z,64.04
2023-05-01T10:20:05.150Z,64.87
2023-05-01T10:21:05.163Z,65.58
2023-05-01T10:22:05.135Z,65.04
2023-05-01T10:23:05.136Z,62.83
2023-05-01T10:24:05.135Z,62.28
2023-05-01T10:25:05.152Z,63.44
2023-05-01T10:26:05.293Z,66.50
2023-05-01T10:27:05.131Z,62.51
2023-05-01T10:28:05.127Z,62.87
2023-05-01T10:29:05.073Z,65.26
2023-05-01T10:30:05.098Z,62.33
2023-05-01T10:31:05.109Z,64.18
2023-05-01T10:32:05.096Z,63.69
2023-05-01T10:33:05.120Z,64.47
2023-05-01T10:34:05.175Z,62.32
2023-05-01T10:35:05.143Z,66.74
2023-05-01T10:36:05.206Z,64.80
2023-05-01T10:37:05.229Z,65.38
2023-05-01T10:38:05.323Z,62.38
2023-05-01T10:39:05.284Z,63.57
2023-05-01T10:40:05.317Z,64.59
2023-05-01T10:41:05.357Z,65.24
2023-05-01T10:42:05.474Z,64.34
2023-05-01T10:43:05.403Z,64.20
2023-05-01T10:44:05.460Z,64.61
2023-05-01T10:45:05.476Z,66.62
2023-05-01T10:46:05.537Z,64.91
2023-05-01T10:47:05.505Z,63.76
2023-05-01T10:48:05.637Z,67.31
2023-05-01T10:49:05.515Z,64.91
2023-05-01T10:50:05.612Z,64.65
2023-05-01T10:51:05.718Z,66.22
2023-05-01T10:52:05.671Z,66.79
2023-05-01T10:53:05.641Z,64.32
2023-05-01T10:54:05.739Z,64.49
2023-05-01T10:55:06.200Z,65.67
2023-05-01T10:56:05.913Z,65.69
2023-05-01T10:57:05.816Z,65.02
2023-05-01T10:58:05.846Z,64.91
2023-05-01T10:59:05.935Z,64.41
2023-05-01T11:00:05.861Z,65.25
2023-05-01T11:01:05.912Z,67.24
2023-05-01T11:02:05.966Z,65.89
2023-05-01T11:03:05.968Z,66.19
2023-05-01T11:04:05.999Z,68.73
2023-05-01T11:05:06.073Z,65.99
2023-05-01T11:06:06.245Z,67.37
2023-05-01T11:07:06.155Z,66.18
2023-05-01T11:08:06.065Z,66.79
2023-05-01T11:09:06.126Z,66.40
2023-05-01T11:10:06.181Z,69.08
2023-05-01T11:11:06.163Z,67.93
2023-05-01T11:12:06.202Z,68.34
2023-05-01T11:13:06.170Z,66.98
2023-05-01T11:14:06.285Z,66.48
2023-05-01T11:15:06.305Z,66.99
2023-05-01T11:16:06.353Z,65.57
2023-05-01T11:17:06.334Z,66.04
2023-05-01T11:18:06.510Z,67.06
2023-05-01T11:19:06.406Z,67.26
2023-05-01T11:20:06.425Z,65.89
2023-05-01T11:21:06.454Z,67.41
2023-05-01T11:22:06.468Z,66.95
2023-05-01T11:23:06.464Z,68.53
2023-05-01T11:24:06.538Z,64.00
2023-05-01T11:25:06.542Z,67.94
2023-05-01T11:26:06.587Z,66.93
2023-05-01T11:27:06.610Z,67.89
2023-05-01T11:28:06.846Z,67.98
2023-05-01T11:29:06.668Z,66.89
2023-05-01T11:30:06.691Z,65.34
2023-05-01T11:31:06.711Z,66.65
2023-05-01T11:32:06.777Z,65.42
2023-05-01T11:33:09.826Z,65.76
2023-05-01T11:34:06.736Z,65.89
2023-05-01T11:35:06.745Z,66.05
2023-05-01T11:36:06.803Z,66.86
2023-05-01T11:37:06.737Z,67.34
2023-05-01T11:38:06.716Z,67.51
2023-05-01T11:39:06.750Z,67.02
2023-05-01T11:40:06.702Z,70.16
2023-05-01T11:41:06.753Z,68.15
2023-05-01T11:42:06.760Z,68.16
2023-05-01T11:43:06.687Z,69.07
2023-05-01T11:44:06.727Z,68.72
2023-05-01T11:45:06.661Z,70.32
2023-05-01T11:46:06.709Z,70.47
2023-05-01T11:47:06.638Z,67.99
2023-05-01T11:48:06.719Z,67.91
2023-05-01T11:49:06.666Z,66.82
2023-05-01T11:50:06.634Z,67.00
2023-05-01T11:51:06.639Z,66.78
2023-05-01T11:52:06.625Z,68.23
2023-05-01T11:53:06.612Z,67.58
2023-05-01T11:54:06.620Z,67.10
2023-05-01T11:55:06.635Z,68.64
2023-05-01T11:56:13.220Z,67.53
2023-05-01T11:57:07.574Z,67.69
2023-05-01T11:58:06.599Z,68.35
2023-05-01T11:59:06.552Z,68.46
2023-05-01T12:00:06.602Z,68.68
2023-05-01T12:01:06.563Z,68.75
2023-05-01T12:02:06.618Z,69.55
2023-05-01T12:03:06.765Z,71.72
2023-05-01T12:04:06.683Z,71.79
2023-05-01T12:05:06.546Z,71.98
2023-05-01T12:06:06.532Z,70.82
2023-05-01T12:07:06.478Z,70.36
2023-05-01T12:08:06.477Z,70.50
2023-05-01T12:09:06.463Z,69.63
2023-05-01T12:10:06.527Z,69.19
2023-05-01T12:11:06.562Z,67.94
2023-05-01T12:12:06.566Z,68.17
2023-05-01T12:13:06.551Z,67.62
2023-05-01T12:14:06.580Z,68.56
2023-05-01T12:15:06.627Z,68.15
2023-05-01T12:16:06.729Z,68.93
2023-05-01T12:17:06.733Z,69.74
2023-05-01T12:18:06.832Z,68.13
2023-05-01T12:19:06.733Z,66.22
2023-05-01T12:20:06.748Z,68.84
2023-05-01T12:21:06.780Z,66.19
2023-05-01T12:22:06.793Z,66.68
2023-05-01T12:23:06.883Z,65.39
2023-05-01T12:24:06.863Z,67.59
2023-05-01T12:25:06.869Z,69.83
2023-05-01T12:26:06.933Z,66.65
2023-05-01T12:27:06.972Z,69.72
2023-05-01T12:28:06.959Z,69.29
2023-05-01T12:29:07.030Z,69.52
2023-05-01T12:30:07.050Z,67.74
2023-05-01T12:31:07.117Z,67.76
2023-05-01T12:32:07.144Z,68.66
2023-05-01T12:33:07.154Z,70.16
2023-05-01T12:34:07.183Z,66.13
2023-05-01T12:35:07.150Z,68.98
2023-05-01T12:36:07.222Z,67.79
2023-05-01T12:37:07.243Z,66.90
2023-05-01T12:38:07.258Z,69.12
2023-05-01T12:39:07.257Z,68.48
2023-05-01T12:40:07.306Z,67.41
2023-05-01T12:41:07.372Z,68.51
2023-05-01T12:42:07.365Z,68.96
2023-05-01T12:43:07.481Z,68.64
2023-05-01T12:44:07.422Z,66.95
2023-05-01T12:45:07.428Z,68.89
2023-05-01T12:46:07.477Z,68.77